DLH1835 LEMG-EDDM
Flight info
| Callsign | DLH1835 |
|---|---|
| Flight time | 2h 25m |
| Altitude | 34000 |
| Route | BLN5H BLN L27 YAKXU DCT RONNY DCT TOPTU DCT TOU/N0448F360 DCT GAI DCT MEN DCT NINUN DCT LATAM DCT ETREK DCT LTP DCT SOPLO DCT OMASI DCT KINNI DCT SOSAL DCT KORED DCT BERSU N871 DITON/N0447F350 DCT NUNRI T103 BETOS BETOS1B |
| Aircraft | A321/M-SDE3FGHIRWY/LB1 |
Departure
| Time | 2026-05-07 16:51 |
|---|---|
| Airport | Málaga-Costa del Sol Airport (LEMG) |
Arrival
| Time | 2026-05-07 19:16 |
|---|---|
| Airport | Munich Airport (EDDM) |
| Time | Latitude | Longitude | Altitude | Speed | Heading |
|---|---|---|---|---|---|
| 2026-05-07 16:01 | 36.67799 | -4.49656 | 42 ft | 0 kts | 131° |
| 2026-05-07 16:41 | 36.67801 | -4.49659 | 41 ft | 1 kts | 131° |
| 2026-05-07 16:42 | 36.67807 | -4.49667 | 40 ft | 1 kts | 131° |
| 2026-05-07 16:42 | 36.67813 | -4.49675 | 40 ft | 1 kts | 131° |
| 2026-05-07 16:42 | 36.67818 | -4.49683 | 38 ft | 1 kts | 131° |
| 2026-05-07 16:42 | 36.67824 | -4.49690 | 42 ft | 1 kts | 131° |
| 2026-05-07 16:43 | 36.67829 | -4.49697 | 40 ft | 1 kts | 126° |
| 2026-05-07 16:43 | 36.67835 | -4.49707 | 41 ft | 1 kts | 88° |
| 2026-05-07 16:43 | 36.67832 | -4.49719 | 42 ft | 1 kts | 43° |
| 2026-05-07 16:43 | 36.67824 | -4.49728 | 42 ft | 2 kts | 42° |
| 2026-05-07 16:44 | 36.67815 | -4.49738 | 40 ft | 2 kts | 42° |
| 2026-05-07 16:44 | 36.67806 | -4.49748 | 41 ft | 2 kts | 42° |
| 2026-05-07 16:44 | 36.67797 | -4.49758 | 40 ft | 2 kts | 42° |
| 2026-05-07 16:44 | 36.67788 | -4.49768 | 42 ft | 2 kts | 30° |
| 2026-05-07 16:45 | 36.67777 | -4.49770 | 41 ft | 2 kts | 303° |
| 2026-05-07 16:45 | 36.67770 | -4.49758 | 37 ft | 2 kts | 310° |
| 2026-05-07 16:45 | 36.67769 | -4.49757 | 37 ft | 0 kts | 310° |
| 2026-05-07 16:46 | 36.67770 | -4.49757 | 37 ft | 0 kts | 310° |
| 2026-05-07 16:46 | 36.67780 | -4.49772 | 42 ft | 4 kts | 311° |
| 2026-05-07 16:47 | 36.67793 | -4.49805 | 42 ft | 5 kts | 264° |
| 2026-05-07 16:47 | 36.67750 | -4.49864 | 42 ft | 12 kts | 221° |
| 2026-05-07 16:47 | 36.67726 | -4.49939 | 43 ft | 10 kts | 296° |
| 2026-05-07 16:47 | 36.67791 | -4.50035 | 44 ft | 18 kts | 312° |
| 2026-05-07 16:48 | 36.67879 | -4.50158 | 44 ft | 20 kts | 312° |
| 2026-05-07 16:48 | 36.67978 | -4.50297 | 44 ft | 24 kts | 311° |
| 2026-05-07 16:48 | 36.68094 | -4.50459 | 44 ft | 26 kts | 312° |
| 2026-05-07 16:48 | 36.68214 | -4.50628 | 45 ft | 27 kts | 312° |
| 2026-05-07 16:49 | 36.68338 | -4.50802 | 48 ft | 26 kts | 311° |
| 2026-05-07 16:49 | 36.68456 | -4.50967 | 51 ft | 24 kts | 311° |
| 2026-05-07 16:49 | 36.68503 | -4.51078 | 55 ft | 13 kts | 260° |
| 2026-05-07 16:49 | 36.68478 | -4.51173 | 55 ft | 10 kts | 252° |
| 2026-05-07 16:50 | 36.68434 | -4.51210 | 59 ft | 7 kts | 171° |
| 2026-05-07 16:50 | 36.68392 | -4.51173 | 59 ft | 8 kts | 132° |
| 2026-05-07 16:50 | 36.68261 | -4.50990 | 56 ft | 62 kts | 131° |
| 2026-05-07 16:50 | 36.67825 | -4.50379 | 53 ft | 125 kts | 131° |
| 2026-05-07 16:51 | 36.67137 | -4.49410 | 140 ft | 165 kts | 131° |
| 2026-05-07 16:51 | 36.66388 | -4.48370 | 904 ft | 160 kts | 131° |
| 2026-05-07 16:51 | 36.65641 | -4.47329 | 1661 ft | 162 kts | 134° |
| 2026-05-07 16:51 | 36.64891 | -4.46282 | 2267 ft | 162 kts | 133° |
| 2026-05-07 16:52 | 36.64137 | -4.45226 | 2773 ft | 164 kts | 133° |
| 2026-05-07 16:52 | 36.63376 | -4.44162 | 3253 ft | 165 kts | 133° |
| 2026-05-07 16:52 | 36.62606 | -4.43089 | 3727 ft | 168 kts | 132° |
| 2026-05-07 16:52 | 36.61782 | -4.41942 | 3952 ft | 188 kts | 132° |
| 2026-05-07 16:53 | 36.60859 | -4.40654 | 4114 ft | 210 kts | 131° |
| 2026-05-07 16:53 | 36.59986 | -4.39088 | 4270 ft | 230 kts | 112° |
| 2026-05-07 16:53 | 36.59604 | -4.37128 | 4736 ft | 235 kts | 101° |
| 2026-05-07 16:53 | 36.59281 | -4.35155 | 5285 ft | 237 kts | 101° |
| 2026-05-07 16:54 | 36.58942 | -4.33141 | 5833 ft | 239 kts | 101° |
| 2026-05-07 16:54 | 36.58601 | -4.31106 | 6378 ft | 241 kts | 99° |
| 2026-05-07 16:54 | 36.58589 | -4.29017 | 6865 ft | 244 kts | 79° |
| 2026-05-07 16:54 | 36.59162 | -4.27014 | 7212 ft | 254 kts | 58° |
| 2026-05-07 16:55 | 36.60242 | -4.25239 | 7720 ft | 260 kts | 51° |
| 2026-05-07 16:55 | 36.61380 | -4.23468 | 8310 ft | 264 kts | 51° |
| 2026-05-07 16:55 | 36.62609 | -4.21747 | 8889 ft | 269 kts | 40° |
| 2026-05-07 16:55 | 36.64181 | -4.20444 | 9319 ft | 280 kts | 24° |
| 2026-05-07 16:56 | 36.66067 | -4.19613 | 9650 ft | 293 kts | 17° |
| 2026-05-07 16:56 | 36.68025 | -4.18830 | 10155 ft | 300 kts | 17° |
| 2026-05-07 16:56 | 36.72270 | -4.17112 | 10420 ft | 341 kts | 17° |
| 2026-05-07 16:57 | 36.74587 | -4.16196 | 10574 ft | 358 kts | 17° |
| 2026-05-07 16:57 | 36.76992 | -4.15259 | 10993 ft | 365 kts | 17° |
| 2026-05-07 16:57 | 36.79431 | -4.14312 | 11510 ft | 369 kts | 17° |
| 2026-05-07 16:57 | 36.81894 | -4.13356 | 12064 ft | 373 kts | 17° |
| 2026-05-07 16:58 | 36.84381 | -4.12391 | 12614 ft | 376 kts | 17° |
| 2026-05-07 16:58 | 36.86898 | -4.11415 | 13169 ft | 380 kts | 17° |
| 2026-05-07 16:58 | 36.89432 | -4.10433 | 13709 ft | 384 kts | 16° |
| 2026-05-07 16:58 | 36.91994 | -4.09438 | 14191 ft | 387 kts | 16° |
| 2026-05-07 16:59 | 36.94579 | -4.08427 | 14681 ft | 390 kts | 16° |
| 2026-05-07 16:59 | 36.97177 | -4.07406 | 15183 ft | 393 kts | 16° |
| 2026-05-07 16:59 | 36.99792 | -4.06376 | 15681 ft | 396 kts | 16° |
| 2026-05-07 16:59 | 37.02426 | -4.05336 | 16174 ft | 398 kts | 16° |
| 2026-05-07 17:00 | 37.05083 | -4.04290 | 16663 ft | 401 kts | 16° |
| 2026-05-07 17:00 | 37.07754 | -4.03241 | 17149 ft | 404 kts | 16° |
| 2026-05-07 17:00 | 37.10449 | -4.02186 | 17605 ft | 407 kts | 15° |
| 2026-05-07 17:00 | 37.13167 | -4.01123 | 18049 ft | 410 kts | 15° |
| 2026-05-07 17:01 | 37.15892 | -4.00056 | 18436 ft | 413 kts | 15° |
| 2026-05-07 17:01 | 37.18646 | -3.98972 | 18815 ft | 415 kts | 15° |
| 2026-05-07 17:01 | 37.21413 | -3.97902 | 19179 ft | 418 kts | 14° |
| 2026-05-07 17:01 | 37.24182 | -3.96861 | 19540 ft | 421 kts | 14° |
| 2026-05-07 17:02 | 37.27002 | -3.95818 | 19897 ft | 424 kts | 14° |
| 2026-05-07 17:02 | 37.29881 | -3.94757 | 20255 ft | 427 kts | 14° |
| 2026-05-07 17:02 | 37.32700 | -3.93717 | 20621 ft | 430 kts | 14° |
| 2026-05-07 17:02 | 37.35583 | -3.92646 | 20979 ft | 433 kts | 14° |
| 2026-05-07 17:03 | 37.38479 | -3.91566 | 21333 ft | 436 kts | 14° |
| 2026-05-07 17:03 | 37.41395 | -3.90473 | 21688 ft | 439 kts | 14° |
| 2026-05-07 17:03 | 37.44331 | -3.89369 | 22036 ft | 442 kts | 13° |
| 2026-05-07 17:03 | 37.47286 | -3.88258 | 22378 ft | 445 kts | 13° |
| 2026-05-07 17:04 | 37.50262 | -3.87140 | 22728 ft | 447 kts | 13° |
| 2026-05-07 17:04 | 37.53253 | -3.86017 | 23075 ft | 450 kts | 13° |
| 2026-05-07 17:04 | 37.56262 | -3.84887 | 23415 ft | 453 kts | 13° |
| 2026-05-07 17:04 | 37.59292 | -3.83746 | 23713 ft | 455 kts | 13° |
| 2026-05-07 17:05 | 37.62331 | -3.82596 | 24000 ft | 457 kts | 13° |
| 2026-05-07 17:05 | 37.65392 | -3.81437 | 24290 ft | 460 kts | 13° |
| 2026-05-07 17:05 | 37.68461 | -3.80274 | 24558 ft | 462 kts | 13° |
| 2026-05-07 17:05 | 37.71549 | -3.79103 | 24860 ft | 464 kts | 13° |
| 2026-05-07 17:06 | 37.74650 | -3.77929 | 25139 ft | 467 kts | 13° |
| 2026-05-07 17:06 | 37.77765 | -3.76749 | 25421 ft | 468 kts | 13° |
| 2026-05-07 17:06 | 37.80893 | -3.75564 | 25710 ft | 471 kts | 13° |
| 2026-05-07 17:06 | 37.84040 | -3.74373 | 25985 ft | 473 kts | 13° |
| 2026-05-07 17:07 | 37.87204 | -3.73179 | 26262 ft | 475 kts | 13° |
| 2026-05-07 17:07 | 37.90377 | -3.71978 | 26530 ft | 477 kts | 12° |
| 2026-05-07 17:07 | 37.93567 | -3.70765 | 26799 ft | 479 kts | 12° |
| 2026-05-07 17:07 | 37.96774 | -3.69541 | 27069 ft | 482 kts | 12° |
| 2026-05-07 17:08 | 37.99989 | -3.68312 | 27334 ft | 484 kts | 12° |
| 2026-05-07 17:08 | 38.03224 | -3.67075 | 27589 ft | 486 kts | 12° |
| 2026-05-07 17:08 | 38.06460 | -3.65841 | 27839 ft | 488 kts | 12° |
| 2026-05-07 17:08 | 38.09719 | -3.64599 | 28083 ft | 490 kts | 12° |
| 2026-05-07 17:09 | 38.12991 | -3.63350 | 28311 ft | 492 kts | 12° |
| 2026-05-07 17:09 | 38.16271 | -3.62075 | 28526 ft | 494 kts | 13° |
| 2026-05-07 17:09 | 38.19499 | -3.60691 | 28742 ft | 497 kts | 15° |
| 2026-05-07 17:09 | 38.22755 | -3.59170 | 28944 ft | 500 kts | 17° |
| 2026-05-07 17:10 | 38.26006 | -3.57572 | 29210 ft | 501 kts | 17° |
| 2026-05-07 17:10 | 38.29250 | -3.55954 | 29491 ft | 500 kts | 17° |
| 2026-05-07 17:10 | 38.32494 | -3.54349 | 29773 ft | 500 kts | 17° |
| 2026-05-07 17:10 | 38.35747 | -3.52770 | 30034 ft | 500 kts | 16° |
| 2026-05-07 17:11 | 38.39008 | -3.51215 | 30254 ft | 500 kts | 16° |
| 2026-05-07 17:11 | 38.42264 | -3.49682 | 30473 ft | 499 kts | 15° |
| 2026-05-07 17:11 | 38.45531 | -3.48154 | 30719 ft | 499 kts | 15° |
| 2026-05-07 17:11 | 38.48792 | -3.46626 | 30950 ft | 499 kts | 15° |
| 2026-05-07 17:12 | 38.52047 | -3.45091 | 31184 ft | 499 kts | 15° |
| 2026-05-07 17:12 | 38.55302 | -3.43549 | 31422 ft | 498 kts | 15° |
| 2026-05-07 17:12 | 38.58547 | -3.42005 | 31670 ft | 498 kts | 15° |
| 2026-05-07 17:12 | 38.61789 | -3.40461 | 31905 ft | 497 kts | 15° |
| 2026-05-07 17:13 | 38.65033 | -3.38916 | 32132 ft | 497 kts | 15° |
| 2026-05-07 17:13 | 38.68266 | -3.37371 | 32390 ft | 496 kts | 15° |
| 2026-05-07 17:13 | 38.71496 | -3.35819 | 32641 ft | 495 kts | 15° |
| 2026-05-07 17:13 | 38.74716 | -3.34271 | 32889 ft | 494 kts | 15° |
| 2026-05-07 17:14 | 38.77941 | -3.32722 | 33102 ft | 494 kts | 15° |
| 2026-05-07 17:14 | 38.81153 | -3.31183 | 33360 ft | 493 kts | 15° |
| 2026-05-07 17:14 | 38.84318 | -3.29665 | 33595 ft | 492 kts | 15° |
| 2026-05-07 17:14 | 38.87527 | -3.28127 | 33839 ft | 491 kts | 14° |
| 2026-05-07 17:15 | 38.90722 | -3.26595 | 34051 ft | 490 kts | 14° |
| 2026-05-07 17:15 | 38.93912 | -3.25063 | 34262 ft | 489 kts | 14° |
| 2026-05-07 17:15 | 38.97092 | -3.23531 | 34463 ft | 488 kts | 14° |
| 2026-05-07 17:15 | 39.00269 | -3.21999 | 34654 ft | 487 kts | 14° |
| 2026-05-07 17:16 | 39.03441 | -3.20470 | 34842 ft | 486 kts | 15° |
| 2026-05-07 17:16 | 39.06609 | -3.18945 | 35041 ft | 485 kts | 14° |
| 2026-05-07 17:16 | 39.09769 | -3.17426 | 35222 ft | 485 kts | 14° |
| 2026-05-07 17:16 | 39.12925 | -3.15904 | 35399 ft | 484 kts | 15° |
| 2026-05-07 17:17 | 39.16074 | -3.14377 | 35573 ft | 484 kts | 15° |
| 2026-05-07 17:17 | 39.19221 | -3.12850 | 35763 ft | 483 kts | 15° |
| 2026-05-07 17:17 | 39.22364 | -3.11325 | 35913 ft | 482 kts | 15° |
| 2026-05-07 17:17 | 39.25497 | -3.09804 | 35945 ft | 482 kts | 15° |
| 2026-05-07 17:18 | 39.31772 | -3.06749 | 35951 ft | 481 kts | 15° |
| 2026-05-07 17:18 | 39.38026 | -3.03696 | 35953 ft | 480 kts | 15° |
| 2026-05-07 17:19 | 39.44274 | -3.00644 | 35955 ft | 480 kts | 15° |
| 2026-05-07 17:19 | 39.50512 | -2.97581 | 35959 ft | 479 kts | 15° |
| 2026-05-07 17:20 | 39.56742 | -2.94506 | 35969 ft | 479 kts | 15° |
| 2026-05-07 17:20 | 39.62977 | -2.91421 | 35985 ft | 480 kts | 15° |
| 2026-05-07 17:21 | 39.69216 | -2.88347 | 35992 ft | 479 kts | 15° |
| 2026-05-07 17:21 | 39.75406 | -2.85294 | 36000 ft | 479 kts | 15° |
| 2026-05-07 17:22 | 39.81632 | -2.82222 | 35998 ft | 478 kts | 15° |
| 2026-05-07 17:22 | 39.87841 | -2.79145 | 35999 ft | 477 kts | 15° |
| 2026-05-07 17:23 | 39.94037 | -2.76069 | 35995 ft | 476 kts | 15° |
| 2026-05-07 17:23 | 40.00231 | -2.72998 | 35997 ft | 476 kts | 15° |
| 2026-05-07 17:24 | 40.06409 | -2.69914 | 35997 ft | 475 kts | 15° |
| 2026-05-07 17:24 | 40.12578 | -2.66822 | 35991 ft | 475 kts | 15° |
| 2026-05-07 17:25 | 40.18743 | -2.63727 | 35990 ft | 474 kts | 15° |
| 2026-05-07 17:25 | 40.24898 | -2.60646 | 35992 ft | 474 kts | 15° |
| 2026-05-07 17:26 | 40.30010 | -2.58084 | 35988 ft | 473 kts | 15° |
| 2026-05-07 17:26 | 40.36153 | -2.54991 | 35984 ft | 473 kts | 16° |
| 2026-05-07 17:27 | 40.42131 | -2.51269 | 35983 ft | 476 kts | 21° |
| 2026-05-07 17:27 | 40.48059 | -2.47392 | 35979 ft | 476 kts | 22° |
| 2026-05-07 17:28 | 40.53982 | -2.43494 | 35975 ft | 476 kts | 22° |
| 2026-05-07 17:28 | 40.59900 | -2.39596 | 35975 ft | 476 kts | 22° |
| 2026-05-07 17:29 | 40.65818 | -2.35709 | 35970 ft | 475 kts | 22° |
| 2026-05-07 17:29 | 40.71737 | -2.31814 | 35970 ft | 475 kts | 22° |
| 2026-05-07 17:30 | 40.77650 | -2.27903 | 35971 ft | 475 kts | 22° |
| 2026-05-07 17:30 | 40.83560 | -2.23992 | 35971 ft | 475 kts | 22° |
| 2026-05-07 17:31 | 40.89469 | -2.20082 | 35953 ft | 475 kts | 22° |
| 2026-05-07 17:31 | 40.95364 | -2.16163 | 35972 ft | 474 kts | 22° |
| 2026-05-07 17:32 | 41.01248 | -2.12243 | 35970 ft | 473 kts | 22° |
| 2026-05-07 17:32 | 41.07127 | -2.08317 | 35970 ft | 473 kts | 24° |
| 2026-05-07 17:33 | 41.12767 | -2.03752 | 35971 ft | 476 kts | 28° |
| 2026-05-07 17:33 | 41.18371 | -1.99076 | 35973 ft | 476 kts | 29° |
| 2026-05-07 17:34 | 41.23976 | -1.94387 | 35970 ft | 476 kts | 29° |
| 2026-05-07 17:34 | 41.29581 | -1.89691 | 35968 ft | 477 kts | 29° |
| 2026-05-07 17:35 | 41.35190 | -1.84974 | 35969 ft | 477 kts | 29° |
| 2026-05-07 17:35 | 41.40803 | -1.80247 | 35967 ft | 477 kts | 30° |
| 2026-05-07 17:36 | 41.46420 | -1.75518 | 35965 ft | 478 kts | 30° |
| 2026-05-07 17:36 | 41.52038 | -1.70766 | 35963 ft | 478 kts | 30° |
| 2026-05-07 17:37 | 41.57649 | -1.66004 | 35961 ft | 478 kts | 30° |
| 2026-05-07 17:37 | 41.63267 | -1.61235 | 35955 ft | 478 kts | 30° |
| 2026-05-07 17:38 | 41.68885 | -1.56454 | 35959 ft | 479 kts | 30° |
| 2026-05-07 17:38 | 41.74504 | -1.51661 | 35945 ft | 479 kts | 30° |
| 2026-05-07 17:39 | 41.80124 | -1.46865 | 35950 ft | 479 kts | 30° |
| 2026-05-07 17:39 | 41.85745 | -1.42055 | 35948 ft | 479 kts | 31° |
| 2026-05-07 17:40 | 41.91369 | -1.37234 | 35947 ft | 480 kts | 31° |
| 2026-05-07 17:40 | 41.96993 | -1.32397 | 35945 ft | 480 kts | 31° |
| 2026-05-07 17:41 | 42.02611 | -1.27548 | 35947 ft | 480 kts | 31° |
| 2026-05-07 17:41 | 42.08233 | -1.22682 | 35946 ft | 480 kts | 31° |
| 2026-05-07 17:42 | 42.13538 | -1.17206 | 35949 ft | 481 kts | 38° |
| 2026-05-07 17:42 | 42.18710 | -1.11469 | 35948 ft | 482 kts | 38° |
| 2026-05-07 17:43 | 42.23893 | -1.05725 | 35957 ft | 482 kts | 38° |
| 2026-05-07 17:43 | 42.29068 | -0.99972 | 35963 ft | 482 kts | 38° |
| 2026-05-07 17:44 | 42.34240 | -0.94199 | 35963 ft | 482 kts | 39° |
| 2026-05-07 17:44 | 42.39402 | -0.88423 | 35963 ft | 482 kts | 39° |
| 2026-05-07 17:45 | 42.44238 | -0.82171 | 35966 ft | 482 kts | 52° |
| 2026-05-07 17:45 | 42.48298 | -0.75013 | 35975 ft | 482 kts | 52° |
| 2026-05-07 17:46 | 42.52398 | -0.67813 | 35979 ft | 482 kts | 52° |
| 2026-05-07 17:46 | 42.56519 | -0.60557 | 35984 ft | 483 kts | 52° |
| 2026-05-07 17:47 | 42.60579 | -0.53374 | 35991 ft | 483 kts | 52° |
| 2026-05-07 17:47 | 42.64666 | -0.46128 | 35997 ft | 483 kts | 53° |
| 2026-05-07 17:48 | 42.68746 | -0.38869 | 35997 ft | 484 kts | 53° |
| 2026-05-07 17:48 | 42.72824 | -0.31604 | 35997 ft | 483 kts | 53° |
| 2026-05-07 17:49 | 42.76898 | -0.24323 | 35995 ft | 483 kts | 53° |
| 2026-05-07 17:49 | 42.80967 | -0.17054 | 36000 ft | 483 kts | 52° |
| 2026-05-07 17:50 | 42.85211 | -0.09939 | 35993 ft | 483 kts | 50° |
| 2026-05-07 17:50 | 42.89535 | -0.02922 | 35985 ft | 483 kts | 50° |
| 2026-05-07 17:51 | 42.93826 | 0.04148 | 35982 ft | 483 kts | 51° |
| 2026-05-07 17:51 | 42.98073 | 0.11256 | 35976 ft | 483 kts | 51° |
| 2026-05-07 17:52 | 43.02303 | 0.18391 | 35979 ft | 483 kts | 51° |
| 2026-05-07 17:52 | 43.06538 | 0.25533 | 35972 ft | 483 kts | 51° |
| 2026-05-07 17:53 | 43.10777 | 0.32668 | 35972 ft | 483 kts | 51° |
| 2026-05-07 17:53 | 43.15018 | 0.39812 | 35964 ft | 483 kts | 51° |
| 2026-05-07 17:54 | 43.19247 | 0.46978 | 35966 ft | 483 kts | 51° |
| 2026-05-07 17:54 | 43.23468 | 0.54156 | 35963 ft | 483 kts | 51° |
| 2026-05-07 17:55 | 43.27691 | 0.61337 | 35968 ft | 483 kts | 51° |
| 2026-05-07 17:55 | 43.31905 | 0.68521 | 35973 ft | 483 kts | 51° |
| 2026-05-07 17:56 | 43.36120 | 0.75727 | 35972 ft | 483 kts | 51° |
| 2026-05-07 17:56 | 43.40300 | 0.82885 | 35959 ft | 483 kts | 51° |
| 2026-05-07 17:57 | 43.43815 | 0.88921 | 35968 ft | 483 kts | 51° |
| 2026-05-07 17:57 | 43.48687 | 0.97329 | 35960 ft | 483 kts | 51° |
| 2026-05-07 17:58 | 43.52869 | 1.04558 | 35963 ft | 483 kts | 51° |
| 2026-05-07 17:58 | 43.57055 | 1.11799 | 35968 ft | 483 kts | 52° |
| 2026-05-07 17:59 | 43.61240 | 1.19057 | 35965 ft | 483 kts | 52° |
| 2026-05-07 17:59 | 43.65413 | 1.26323 | 35965 ft | 484 kts | 52° |
| 2026-05-07 18:00 | 43.69581 | 1.33647 | 35969 ft | 484 kts | 53° |
| 2026-05-07 18:00 | 43.73605 | 1.41103 | 35966 ft | 484 kts | 54° |
| 2026-05-07 18:01 | 43.77559 | 1.48647 | 35970 ft | 484 kts | 54° |
| 2026-05-07 18:01 | 43.81520 | 1.56191 | 35963 ft | 484 kts | 54° |
| 2026-05-07 18:02 | 43.87515 | 1.67476 | 35962 ft | 485 kts | 54° |
| 2026-05-07 18:03 | 43.91508 | 1.75001 | 35970 ft | 485 kts | 54° |
| 2026-05-07 18:03 | 43.95491 | 1.82566 | 35974 ft | 485 kts | 54° |
| 2026-05-07 18:04 | 43.99388 | 1.90216 | 35977 ft | 486 kts | 56° |
| 2026-05-07 18:04 | 44.03198 | 1.97963 | 35978 ft | 486 kts | 56° |
| 2026-05-07 18:05 | 44.07015 | 2.05721 | 35976 ft | 486 kts | 56° |
| 2026-05-07 18:05 | 44.10856 | 2.13468 | 35983 ft | 486 kts | 56° |
| 2026-05-07 18:06 | 44.14695 | 2.21210 | 35983 ft | 486 kts | 56° |
| 2026-05-07 18:06 | 44.18524 | 2.28968 | 35986 ft | 486 kts | 56° |
| 2026-05-07 18:07 | 44.22314 | 2.36688 | 35991 ft | 486 kts | 56° |
| 2026-05-07 18:07 | 44.26123 | 2.44464 | 35992 ft | 486 kts | 56° |
| 2026-05-07 18:08 | 44.29934 | 2.52254 | 35991 ft | 486 kts | 56° |
| 2026-05-07 18:08 | 44.33736 | 2.60056 | 35991 ft | 486 kts | 56° |
| 2026-05-07 18:09 | 44.37541 | 2.67881 | 35992 ft | 486 kts | 56° |
| 2026-05-07 18:09 | 44.41339 | 2.75706 | 35991 ft | 486 kts | 56° |
| 2026-05-07 18:10 | 44.45139 | 2.83546 | 35991 ft | 487 kts | 56° |
| 2026-05-07 18:10 | 44.48929 | 2.91399 | 35988 ft | 487 kts | 56° |
| 2026-05-07 18:11 | 44.52074 | 2.97938 | 35988 ft | 487 kts | 56° |
| 2026-05-07 18:11 | 44.55856 | 3.05815 | 35990 ft | 487 kts | 56° |
| 2026-05-07 18:12 | 44.59631 | 3.13706 | 35989 ft | 487 kts | 56° |
| 2026-05-07 18:12 | 44.63255 | 3.21740 | 35987 ft | 487 kts | 60° |
| 2026-05-07 18:13 | 44.66538 | 3.30060 | 35986 ft | 487 kts | 62° |
| 2026-05-07 18:13 | 44.69744 | 3.38443 | 35990 ft | 487 kts | 62° |
| 2026-05-07 18:14 | 44.73033 | 3.46786 | 35991 ft | 488 kts | 61° |
| 2026-05-07 18:14 | 44.76342 | 3.55042 | 35992 ft | 487 kts | 61° |
| 2026-05-07 18:15 | 44.79668 | 3.63358 | 36001 ft | 487 kts | 61° |
| 2026-05-07 18:15 | 44.82972 | 3.71705 | 36004 ft | 488 kts | 61° |
| 2026-05-07 18:16 | 44.86267 | 3.80061 | 36008 ft | 488 kts | 61° |
| 2026-05-07 18:16 | 44.89556 | 3.88419 | 36010 ft | 487 kts | 61° |
| 2026-05-07 18:17 | 44.92838 | 3.96790 | 36011 ft | 487 kts | 61° |
| 2026-05-07 18:17 | 44.96107 | 4.05169 | 36009 ft | 487 kts | 61° |
| 2026-05-07 18:18 | 44.99349 | 4.13506 | 36005 ft | 487 kts | 61° |
| 2026-05-07 18:18 | 45.02611 | 4.21900 | 36003 ft | 487 kts | 61° |
| 2026-05-07 18:19 | 45.05867 | 4.30309 | 36003 ft | 487 kts | 61° |
| 2026-05-07 18:19 | 45.09119 | 4.38721 | 36008 ft | 487 kts | 61° |
| 2026-05-07 18:20 | 45.12361 | 4.47147 | 36008 ft | 487 kts | 61° |
| 2026-05-07 18:20 | 45.15605 | 4.55585 | 36010 ft | 487 kts | 61° |
| 2026-05-07 18:21 | 45.18834 | 4.64028 | 36009 ft | 487 kts | 61° |
| 2026-05-07 18:21 | 45.22037 | 4.72426 | 36012 ft | 487 kts | 62° |
| 2026-05-07 18:22 | 45.25250 | 4.80888 | 36014 ft | 487 kts | 62° |
| 2026-05-07 18:22 | 45.28461 | 4.89355 | 36014 ft | 487 kts | 62° |
| 2026-05-07 18:23 | 45.31664 | 4.97827 | 36016 ft | 487 kts | 62° |
| 2026-05-07 18:23 | 45.34858 | 5.06308 | 36020 ft | 487 kts | 62° |
| 2026-05-07 18:24 | 45.38047 | 5.14795 | 36024 ft | 486 kts | 62° |
| 2026-05-07 18:24 | 45.41231 | 5.23289 | 36024 ft | 486 kts | 62° |
| 2026-05-07 18:25 | 45.44405 | 5.31792 | 36026 ft | 486 kts | 62° |
| 2026-05-07 18:25 | 45.47583 | 5.40224 | 36023 ft | 486 kts | 58° |
| 2026-05-07 18:26 | 45.51830 | 5.47643 | 36017 ft | 482 kts | 40° |
| 2026-05-07 18:26 | 45.56844 | 5.53999 | 35998 ft | 482 kts | 40° |
| 2026-05-07 18:27 | 45.61845 | 5.60388 | 36001 ft | 483 kts | 40° |
| 2026-05-07 18:27 | 45.66841 | 5.66805 | 35997 ft | 483 kts | 40° |
| 2026-05-07 18:28 | 45.71831 | 5.73235 | 36000 ft | 483 kts | 40° |
| 2026-05-07 18:28 | 45.76831 | 5.79664 | 36002 ft | 483 kts | 40° |
| 2026-05-07 18:29 | 45.81840 | 5.86091 | 36004 ft | 483 kts | 40° |
| 2026-05-07 18:29 | 45.86837 | 5.92528 | 36001 ft | 483 kts | 40° |
| 2026-05-07 18:30 | 45.91829 | 5.98986 | 36000 ft | 483 kts | 40° |
| 2026-05-07 18:30 | 45.96826 | 6.05447 | 36001 ft | 483 kts | 40° |
| 2026-05-07 18:31 | 46.01813 | 6.11922 | 36001 ft | 483 kts | 40° |
| 2026-05-07 18:31 | 46.06793 | 6.18428 | 36006 ft | 483 kts | 40° |
| 2026-05-07 18:32 | 46.11695 | 6.24954 | 36034 ft | 483 kts | 42° |
| 2026-05-07 18:32 | 46.16480 | 6.31767 | 36026 ft | 484 kts | 43° |
| 2026-05-07 18:33 | 46.21219 | 6.38661 | 36024 ft | 483 kts | 43° |
| 2026-05-07 18:33 | 46.25985 | 6.45520 | 36023 ft | 483 kts | 43° |
| 2026-05-07 18:34 | 46.30766 | 6.52346 | 36030 ft | 483 kts | 43° |
| 2026-05-07 18:34 | 46.35551 | 6.59178 | 36032 ft | 483 kts | 43° |
| 2026-05-07 18:35 | 46.40318 | 6.66025 | 36038 ft | 483 kts | 43° |
| 2026-05-07 18:35 | 46.45088 | 6.72906 | 36039 ft | 483 kts | 43° |
| 2026-05-07 18:36 | 46.49852 | 6.79793 | 36044 ft | 483 kts | 43° |
| 2026-05-07 18:36 | 46.54607 | 6.86687 | 36048 ft | 483 kts | 43° |
| 2026-05-07 18:37 | 46.58979 | 6.94132 | 36043 ft | 485 kts | 49° |
| 2026-05-07 18:37 | 46.63217 | 7.01777 | 36046 ft | 485 kts | 49° |
| 2026-05-07 18:38 | 46.67428 | 7.09361 | 36054 ft | 485 kts | 49° |
| 2026-05-07 18:38 | 46.71665 | 7.17023 | 36048 ft | 485 kts | 49° |
| 2026-05-07 18:39 | 46.75893 | 7.24703 | 36045 ft | 486 kts | 49° |
| 2026-05-07 18:39 | 46.80117 | 7.32396 | 36037 ft | 486 kts | 49° |
| 2026-05-07 18:40 | 46.84333 | 7.40094 | 36030 ft | 485 kts | 49° |
| 2026-05-07 18:40 | 46.88545 | 7.47799 | 36029 ft | 485 kts | 49° |
| 2026-05-07 18:41 | 46.92751 | 7.55519 | 36030 ft | 485 kts | 49° |
| 2026-05-07 18:41 | 46.96944 | 7.63259 | 36029 ft | 485 kts | 49° |
| 2026-05-07 18:42 | 47.01100 | 7.70959 | 36038 ft | 484 kts | 49° |
| 2026-05-07 18:42 | 47.05278 | 7.78710 | 36046 ft | 484 kts | 49° |
| 2026-05-07 18:43 | 47.09442 | 7.86459 | 36061 ft | 484 kts | 50° |
| 2026-05-07 18:43 | 47.13574 | 7.94255 | 36060 ft | 484 kts | 53° |
| 2026-05-07 18:44 | 47.17179 | 8.02612 | 36062 ft | 484 kts | 56° |
| 2026-05-07 18:44 | 47.20761 | 8.10991 | 36063 ft | 484 kts | 56° |
| 2026-05-07 18:45 | 47.24331 | 8.19383 | 36059 ft | 484 kts | 56° |
| 2026-05-07 18:45 | 47.27885 | 8.27786 | 36063 ft | 484 kts | 56° |
| 2026-05-07 18:46 | 47.30949 | 8.36602 | 36057 ft | 485 kts | 70° |
| 2026-05-07 18:46 | 47.33035 | 8.46073 | 36057 ft | 486 kts | 71° |
| 2026-05-07 18:47 | 47.35134 | 8.55534 | 36055 ft | 486 kts | 71° |
| 2026-05-07 18:47 | 47.37223 | 8.64958 | 36053 ft | 486 kts | 71° |
| 2026-05-07 18:48 | 47.39303 | 8.74453 | 36053 ft | 486 kts | 71° |
| 2026-05-07 18:48 | 47.41365 | 8.83965 | 36055 ft | 486 kts | 71° |
| 2026-05-07 18:49 | 47.43421 | 8.93486 | 36059 ft | 486 kts | 71° |
| 2026-05-07 18:49 | 47.45480 | 9.02999 | 36062 ft | 486 kts | 71° |
| 2026-05-07 18:50 | 47.47525 | 9.12517 | 36062 ft | 486 kts | 71° |
| 2026-05-07 18:50 | 47.49560 | 9.22046 | 36057 ft | 486 kts | 71° |
| 2026-05-07 18:50 | 47.50576 | 9.26813 | 35874 ft | 486 kts | 71° |
| 2026-05-07 18:51 | 47.51589 | 9.31576 | 35577 ft | 484 kts | 71° |
| 2026-05-07 18:51 | 47.52582 | 9.36263 | 35251 ft | 484 kts | 71° |
| 2026-05-07 18:51 | 47.53586 | 9.41017 | 34933 ft | 484 kts | 71° |
| 2026-05-07 18:51 | 47.54588 | 9.45773 | 34688 ft | 484 kts | 71° |
| 2026-05-07 18:52 | 47.55588 | 9.50528 | 34405 ft | 484 kts | 71° |
| 2026-05-07 18:52 | 47.56582 | 9.55283 | 34123 ft | 484 kts | 71° |
| 2026-05-07 18:52 | 47.57560 | 9.60057 | 33771 ft | 484 kts | 72° |
| 2026-05-07 18:52 | 47.58519 | 9.64848 | 33387 ft | 484 kts | 72° |
| 2026-05-07 18:53 | 47.59459 | 9.69633 | 33018 ft | 484 kts | 72° |
| 2026-05-07 18:53 | 47.60390 | 9.74422 | 32638 ft | 484 kts | 72° |
| 2026-05-07 18:53 | 47.61319 | 9.79205 | 32277 ft | 483 kts | 72° |
| 2026-05-07 18:53 | 47.62253 | 9.83992 | 31922 ft | 483 kts | 72° |
| 2026-05-07 18:54 | 47.63190 | 9.88775 | 31564 ft | 483 kts | 72° |
| 2026-05-07 18:54 | 47.64126 | 9.93538 | 31169 ft | 480 kts | 72° |
| 2026-05-07 18:54 | 47.65056 | 9.98275 | 30732 ft | 476 kts | 72° |
| 2026-05-07 18:54 | 47.65962 | 10.02907 | 30265 ft | 472 kts | 72° |
| 2026-05-07 18:55 | 47.66878 | 10.07609 | 29703 ft | 467 kts | 72° |
| 2026-05-07 18:55 | 47.67760 | 10.12152 | 29144 ft | 462 kts | 72° |
| 2026-05-07 18:55 | 47.68548 | 10.16238 | 28641 ft | 458 kts | 72° |
| 2026-05-07 18:55 | 47.69417 | 10.20763 | 28090 ft | 453 kts | 73° |
| 2026-05-07 18:56 | 47.70272 | 10.25234 | 27540 ft | 448 kts | 73° |
| 2026-05-07 18:56 | 47.71119 | 10.29662 | 27026 ft | 444 kts | 73° |
| 2026-05-07 18:56 | 47.71958 | 10.34053 | 26503 ft | 440 kts | 73° |
| 2026-05-07 18:56 | 47.72760 | 10.38247 | 26004 ft | 436 kts | 73° |
| 2026-05-07 18:57 | 47.73586 | 10.42569 | 25501 ft | 432 kts | 73° |
| 2026-05-07 18:57 | 47.74399 | 10.46844 | 25006 ft | 428 kts | 73° |
| 2026-05-07 18:57 | 47.75202 | 10.51083 | 24523 ft | 425 kts | 73° |
| 2026-05-07 18:57 | 47.75998 | 10.55296 | 24046 ft | 421 kts | 73° |
| 2026-05-07 18:58 | 47.76786 | 10.59473 | 23569 ft | 418 kts | 73° |
| 2026-05-07 18:58 | 47.77567 | 10.63620 | 23009 ft | 415 kts | 73° |
| 2026-05-07 18:58 | 47.78332 | 10.67682 | 22471 ft | 412 kts | 73° |
| 2026-05-07 18:58 | 47.79101 | 10.71764 | 21943 ft | 409 kts | 74° |
| 2026-05-07 18:59 | 47.79862 | 10.75822 | 21413 ft | 406 kts | 74° |
| 2026-05-07 18:59 | 47.80616 | 10.79851 | 20894 ft | 403 kts | 74° |
| 2026-05-07 18:59 | 47.81360 | 10.83845 | 20380 ft | 400 kts | 74° |
| 2026-05-07 18:59 | 47.82097 | 10.87820 | 19890 ft | 397 kts | 74° |
| 2026-05-07 19:00 | 47.82828 | 10.91759 | 19399 ft | 394 kts | 74° |
| 2026-05-07 19:00 | 47.83555 | 10.95681 | 18912 ft | 391 kts | 74° |
| 2026-05-07 19:00 | 47.84382 | 10.99519 | 18434 ft | 388 kts | 64° |
| 2026-05-07 19:00 | 47.85813 | 11.02875 | 17946 ft | 382 kts | 49° |
| 2026-05-07 19:01 | 47.87506 | 11.05935 | 17697 ft | 383 kts | 49° |
| 2026-05-07 19:01 | 47.89192 | 11.08996 | 17375 ft | 383 kts | 49° |
| 2026-05-07 19:01 | 47.90874 | 11.12067 | 17054 ft | 382 kts | 49° |
| 2026-05-07 19:01 | 47.92546 | 11.15135 | 16750 ft | 380 kts | 49° |
| 2026-05-07 19:02 | 47.94211 | 11.18190 | 16346 ft | 379 kts | 49° |
| 2026-05-07 19:02 | 47.95872 | 11.21228 | 15938 ft | 377 kts | 49° |
| 2026-05-07 19:02 | 47.97528 | 11.24253 | 15496 ft | 375 kts | 49° |
| 2026-05-07 19:02 | 47.99175 | 11.27266 | 15049 ft | 373 kts | 49° |
| 2026-05-07 19:03 | 48.00812 | 11.30266 | 14619 ft | 372 kts | 49° |
| 2026-05-07 19:03 | 48.02440 | 11.33258 | 14189 ft | 370 kts | 49° |
| 2026-05-07 19:03 | 48.04055 | 11.36230 | 13810 ft | 369 kts | 49° |
| 2026-05-07 19:03 | 48.05670 | 11.39202 | 13401 ft | 367 kts | 49° |
| 2026-05-07 19:04 | 48.07274 | 11.42157 | 13001 ft | 364 kts | 49° |
| 2026-05-07 19:04 | 48.08865 | 11.45087 | 12608 ft | 362 kts | 49° |
| 2026-05-07 19:04 | 48.10445 | 11.48000 | 12220 ft | 359 kts | 49° |
| 2026-05-07 19:04 | 48.12011 | 11.50890 | 11855 ft | 356 kts | 49° |
| 2026-05-07 19:05 | 48.13570 | 11.53772 | 11610 ft | 355 kts | 49° |
| 2026-05-07 19:05 | 48.15121 | 11.56646 | 11423 ft | 354 kts | 49° |
| 2026-05-07 19:05 | 48.16614 | 11.59414 | 11254 ft | 353 kts | 49° |
| 2026-05-07 19:05 | 48.18156 | 11.62277 | 11093 ft | 353 kts | 49° |
| 2026-05-07 19:06 | 48.19676 | 11.65104 | 10900 ft | 343 kts | 49° |
| 2026-05-07 19:06 | 48.22590 | 11.70538 | 10242 ft | 328 kts | 49° |
| 2026-05-07 19:06 | 48.23941 | 11.73296 | 9740 ft | 329 kts | 57° |
| 2026-05-07 19:07 | 48.24971 | 11.76352 | 9261 ft | 327 kts | 68° |
| 2026-05-07 19:07 | 48.25636 | 11.79575 | 8827 ft | 317 kts | 78° |
| 2026-05-07 19:07 | 48.25951 | 11.82750 | 8389 ft | 301 kts | 83° |
| 2026-05-07 19:07 | 48.26184 | 11.85838 | 7814 ft | 295 kts | 83° |
| 2026-05-07 19:08 | 48.26337 | 11.87855 | 7419 ft | 293 kts | 83° |
| 2026-05-07 19:08 | 48.26568 | 11.90887 | 6823 ft | 292 kts | 83° |
| 2026-05-07 19:08 | 48.26798 | 11.93910 | 6217 ft | 291 kts | 83° |
| 2026-05-07 19:08 | 48.27024 | 11.96908 | 5673 ft | 286 kts | 83° |
| 2026-05-07 19:09 | 48.27243 | 11.99833 | 5308 ft | 277 kts | 83° |
| 2026-05-07 19:09 | 48.27459 | 12.02692 | 4959 ft | 274 kts | 83° |
| 2026-05-07 19:09 | 48.27667 | 12.05532 | 4569 ft | 274 kts | 83° |
| 2026-05-07 19:09 | 48.27867 | 12.08347 | 4308 ft | 268 kts | 83° |
| 2026-05-07 19:10 | 48.28081 | 12.11061 | 4171 ft | 256 kts | 77° |
| 2026-05-07 19:10 | 48.28830 | 12.13363 | 4059 ft | 241 kts | 45° |
| 2026-05-07 19:10 | 48.30193 | 12.14652 | 4002 ft | 231 kts | 12° |
| 2026-05-07 19:10 | 48.31785 | 12.14829 | 4005 ft | 231 kts | 356° |
| 2026-05-07 19:11 | 48.33376 | 12.14704 | 4003 ft | 223 kts | 354° |
| 2026-05-07 19:11 | 48.34797 | 12.14097 | 4026 ft | 209 kts | 328° |
| 2026-05-07 19:11 | 48.35884 | 12.12685 | 4011 ft | 207 kts | 306° |
| 2026-05-07 19:11 | 48.36511 | 12.10771 | 4005 ft | 200 kts | 284° |
| 2026-05-07 19:12 | 48.36603 | 12.08787 | 4000 ft | 184 kts | 263° |
| 2026-05-07 19:12 | 48.36459 | 12.06904 | 4019 ft | 179 kts | 264° |
| 2026-05-07 19:12 | 48.36325 | 12.05058 | 4011 ft | 177 kts | 264° |
| 2026-05-07 19:12 | 48.36190 | 12.03220 | 4007 ft | 176 kts | 264° |
| 2026-05-07 19:13 | 48.36054 | 12.01386 | 4009 ft | 176 kts | 264° |
| 2026-05-07 19:13 | 48.35918 | 11.99553 | 3963 ft | 177 kts | 264° |
| 2026-05-07 19:13 | 48.35781 | 11.97721 | 3789 ft | 176 kts | 264° |
| 2026-05-07 19:13 | 48.35645 | 11.95897 | 3579 ft | 176 kts | 264° |
| 2026-05-07 19:14 | 48.35508 | 11.94075 | 3356 ft | 175 kts | 264° |
| 2026-05-07 19:14 | 48.35371 | 11.92254 | 3107 ft | 174 kts | 264° |
| 2026-05-07 19:14 | 48.35241 | 11.90535 | 2878 ft | 158 kts | 265° |
| 2026-05-07 19:14 | 48.35121 | 11.88936 | 2672 ft | 151 kts | 265° |
| 2026-05-07 19:15 | 48.35003 | 11.87385 | 2462 ft | 149 kts | 265° |
| 2026-05-07 19:15 | 48.34887 | 11.85841 | 2247 ft | 148 kts | 265° |
| 2026-05-07 19:15 | 48.34770 | 11.84306 | 2044 ft | 148 kts | 265° |
| 2026-05-07 19:15 | 48.34657 | 11.82775 | 1806 ft | 147 kts | 264° |
| 2026-05-07 19:16 | 48.34542 | 11.81249 | 1626 ft | 147 kts | 264° |
| 2026-05-07 19:16 | 48.34427 | 11.79739 | 1485 ft | 137 kts | 263° |
| 2026-05-07 19:16 | 48.34344 | 11.78679 | 1483 ft | 62 kts | 263° |
| 2026-05-07 19:16 | 48.34307 | 11.78155 | 1479 ft | 36 kts | 271° |
| 2026-05-07 19:17 | 48.34370 | 11.77811 | 1477 ft | 31 kts | 292° |
| 2026-05-07 19:17 | 48.34440 | 11.77561 | 1479 ft | 25 kts | 293° |
| 2026-05-07 19:17 | 48.34530 | 11.77438 | 1478 ft | 18 kts | 352° |
| 2026-05-07 19:17 | 48.34625 | 11.77461 | 1474 ft | 14 kts | 62° |
| 2026-05-07 19:18 | 48.34643 | 11.77638 | 1485 ft | 21 kts | 83° |
| 2026-05-07 19:18 | 48.34661 | 11.77875 | 1485 ft | 24 kts | 83° |
| 2026-05-07 19:18 | 48.34681 | 11.78129 | 1485 ft | 25 kts | 83° |
| 2026-05-07 19:18 | 48.34701 | 11.78391 | 1480 ft | 26 kts | 83° |
| 2026-05-07 19:19 | 48.34718 | 11.78609 | 1485 ft | 20 kts | 83° |
| 2026-05-07 19:19 | 48.34735 | 11.78823 | 1481 ft | 21 kts | 83° |
| 2026-05-07 19:19 | 48.34752 | 11.79051 | 1478 ft | 22 kts | 83° |
| 2026-05-07 19:19 | 48.34770 | 11.79282 | 1480 ft | 19 kts | 83° |
| 2026-05-07 19:20 | 48.34783 | 11.79454 | 1472 ft | 16 kts | 83° |
| 2026-05-07 19:20 | 48.34814 | 11.79558 | 1480 ft | 10 kts | 25° |
| 2026-05-07 19:20 | 48.34875 | 11.79554 | 1478 ft | 3 kts | 354° |
| 2026-05-07 19:20 | 48.34896 | 11.79551 | 1482 ft | 4 kts | 353° |
| 2026-05-07 19:21 | 48.34935 | 11.79544 | 1479 ft | 8 kts | 353° |
| 2026-05-07 19:21 | 48.35012 | 11.79530 | 1485 ft | 13 kts | 353° |
| 2026-05-07 19:21 | 48.35100 | 11.79515 | 1475 ft | 13 kts | 353° |
| 2026-05-07 19:21 | 48.35159 | 11.79505 | 1481 ft | 5 kts | 353° |
| 2026-05-07 19:22 | 48.35177 | 11.79502 | 1485 ft | 0 kts | 353° |
| 2026-05-07 19:24 | 48.35182 | 11.79503 | 1485 ft | 3 kts | 8° |
| 2026-05-07 19:24 | 48.35205 | 11.79569 | 1478 ft | 10 kts | 80° |
| 2026-05-07 19:24 | 48.35260 | 11.79624 | 1479 ft | 14 kts | 355° |
| 2026-05-07 19:25 | 48.35358 | 11.79606 | 1485 ft | 14 kts | 353° |
| 2026-05-07 19:25 | 48.35457 | 11.79589 | 1485 ft | 12 kts | 353° |
| 2026-05-07 19:25 | 48.35514 | 11.79597 | 1475 ft | 7 kts | 45° |
| 2026-05-07 19:25 | 48.35528 | 11.79678 | 1479 ft | 7 kts | 83° |
| 2026-05-07 19:26 | 48.35531 | 11.79719 | 1480 ft | 2 kts | 83° |
| 2026-05-07 19:26 | 48.35532 | 11.79730 | 1483 ft | 0 kts | 83° |